sensor_id;sensor_type;location;lat;lon;timestamp;pressure;altitude;pressure_sealevel;temperature;humidity
60918;BME280;46792;38.854;-9.384;2022-11-15T00:01:16;99544.41;;;15.78;100.00
60918;BME280;46792;38.854;-9.384;2022-11-15T00:03:36;99537.34;;;15.77;100.00
60918;BME280;46792;38.854;-9.384;2022-11-15T00:06:03;99532.78;;;15.72;100.00
60918;BME280;46792;38.854;-9.384;2022-11-15T00:08:23;99535.00;;;15.70;100.00
60918;BME280;46792;38.854;-9.384;2022-11-15T00:10:42;99532.47;;;15.74;100.00
60918;BME280;46792;38.854;-9.384;2022-11-15T00:13:12;99533.91;;;15.71;100.00
60918;BME280;46792;38.854;-9.384;2022-11-15T00:15:31;99533.19;;;15.65;100.00
60918;BME280;46792;38.854;-9.384;2022-11-15T00:17:50;99536.81;;;15.61;100.00
60918;BME280;46792;38.854;-9.384;2022-11-15T00:20:10;99538.19;;;15.58;100.00
60918;BME280;46792;38.854;-9.384;2022-11-15T00:22:33;99529.22;;;15.58;100.00
60918;BME280;46792;38.854;-9.384;2022-11-15T00:24:53;99543.34;;;15.60;100.00
60918;BME280;46792;38.854;-9.384;2022-11-15T00:27:12;99533.25;;;15.60;100.00
60918;BME280;46792;38.854;-9.384;2022-11-15T00:29:31;99535.69;;;15.62;100.00
60918;BME280;46792;38.854;-9.384;2022-11-15T00:31:50;99537.91;;;15.60;100.00
60918;BME280;46792;38.854;-9.384;2022-11-15T00:34:09;99527.81;;;15.60;100.00
60918;BME280;46792;38.854;-9.384;2022-11-15T00:36:32;99525.41;;;15.59;100.00
60918;BME280;46792;38.854;-9.384;2022-11-15T00:38:52;99524.59;;;15.58;100.00
60918;BME280;46792;38.854;-9.384;2022-11-15T00:41:11;99519.44;;;15.57;100.00
60918;BME280;46792;38.854;-9.384;2022-11-15T00:43:31;99513.19;;;15.56;100.00
60918;BME280;46792;38.854;-9.384;2022-11-15T00:45:50;99528.41;;;15.57;100.00
60918;BME280;46792;38.854;-9.384;2022-11-15T00:48:10;99523.28;;;15.56;100.00
60918;BME280;46792;38.854;-9.384;2022-11-15T00:50:29;99510.69;;;15.60;100.00
60918;BME280;46792;38.854;-9.384;2022-11-15T00:52:51;99511.72;;;15.64;100.00
60918;BME280;46792;38.854;-9.384;2022-11-15T00:55:14;99511.34;;;15.71;100.00
60918;BME280;46792;38.854;-9.384;2022-11-15T00:57:34;99506.81;;;15.80;100.00
60918;BME280;46792;38.854;-9.384;2022-11-15T00:59:53;99497.53;;;15.81;100.00
60918;BME280;46792;38.854;-9.384;2022-11-15T01:02:12;99494.97;;;15.90;100.00
60918;BME280;46792;38.854;-9.384;2022-11-15T01:04:31;99494.44;;;15.88;100.00
60918;BME280;46792;38.854;-9.384;2022-11-15T01:06:50;99496.38;;;15.87;100.00
60918;BME280;46792;38.854;-9.384;2022-11-15T01:09:09;99491.41;;;15.89;100.00
60918;BME280;46792;38.854;-9.384;2022-11-15T01:11:27;99492.25;;;15.90;100.00
60918;BME280;46792;38.854;-9.384;2022-11-15T01:13:46;99491.41;;;15.89;100.00
60918;BME280;46792;38.854;-9.384;2022-11-15T01:16:13;99491.72;;;15.88;100.00
60918;BME280;46792;38.854;-9.384;2022-11-15T01:18:33;99485.50;;;15.87;100.00
60918;BME280;46792;38.854;-9.384;2022-11-15T01:20:52;99484.72;;;15.81;100.00
60918;BME280;46792;38.854;-9.384;2022-11-15T01:23:11;99479.91;;;15.78;100.00
60918;BME280;46792;38.854;-9.384;2022-11-15T01:25:30;99482.00;;;15.81;100.00
60918;BME280;46792;38.854;-9.384;2022-11-15T01:27:49;99480.38;;;15.80;100.00
60918;BME280;46792;38.854;-9.384;2022-11-15T01:30:09;99474.09;;;15.85;100.00
60918;BME280;46792;38.854;-9.384;2022-11-15T01:32:28;99466.44;;;15.87;100.00
60918;BME280;46792;38.854;-9.384;2022-11-15T01:34:47;99465.81;;;15.90;100.00
60918;BME280;46792;38.854;-9.384;2022-11-15T01:37:06;99465.22;;;15.93;100.00
60918;BME280;46792;38.854;-9.384;2022-11-15T01:39:27;99461.56;;;15.98;100.00
60918;BME280;46792;38.854;-9.384;2022-11-15T01:41:46;99468.75;;;15.94;100.00
60918;BME280;46792;38.854;-9.384;2022-11-15T01:46:49;99467.03;;;16.12;100.00
60918;BME280;46792;38.854;-9.384;2022-11-15T01:49:15;99475.19;;;16.12;100.00
60918;BME280;46792;38.854;-9.384;2022-11-15T01:51:35;99458.97;;;16.07;100.00
60918;BME280;46792;38.854;-9.384;2022-11-15T01:53:58;99455.13;;;15.94;100.00
60918;BME280;46792;38.854;-9.384;2022-11-15T01:56:22;99463.59;;;15.92;100.00
60918;BME280;46792;38.854;-9.384;2022-11-15T01:58:44;99460.16;;;15.87;100.00
60918;BME280;46792;38.854;-9.384;2022-11-15T02:01:04;99460.34;;;15.76;100.00
60918;BME280;46792;38.854;-9.384;2022-11-15T02:03:28;99457.50;;;15.81;100.00
60918;BME280;46792;38.854;-9.384;2022-11-15T02:05:50;99455.59;;;15.82;100.00
60918;BME280;46792;38.854;-9.384;2022-11-15T02:08:12;99451.16;;;15.72;100.00
60918;BME280;46792;38.854;-9.384;2022-11-15T02:10:40;99448.03;;;15.79;100.00
60918;BME280;46792;38.854;-9.384;2022-11-15T02:13:00;99444.53;;;15.78;100.00
60918;BME280;46792;38.854;-9.384;2022-11-15T02:15:20;99441.28;;;15.76;100.00
60918;BME280;46792;38.854;-9.384;2022-11-15T02:18:08;99433.13;;;15.76;100.00
60918;BME280;46792;38.854;-9.384;2022-11-15T02:29:11;99428.91;;;15.98;100.00
60918;BME280;46792;38.854;-9.384;2022-11-15T02:31:36;99420.25;;;15.96;100.00
60918;BME280;46792;38.854;-9.384;2022-11-15T02:39:13;99415.00;;;16.00;100.00
60918;BME280;46792;38.854;-9.384;2022-11-15T02:41:53;99398.75;;;16.08;100.00
60918;BME280;46792;38.854;-9.384;2022-11-15T02:44:21;99411.56;;;16.08;100.00
60918;BME280;46792;38.854;-9.384;2022-11-15T02:46:49;99399.88;;;16.07;100.00
60918;BME280;46792;38.854;-9.384;2022-11-15T02:49:33;99397.75;;;16.04;100.00
60918;BME280;46792;38.854;-9.384;2022-11-15T02:51:54;99399.28;;;15.96;100.00
60918;BME280;46792;38.854;-9.384;2022-11-15T02:54:22;99399.47;;;16.00;100.00
60918;BME280;46792;38.854;-9.384;2022-11-15T02:56:43;99403.94;;;15.96;100.00
60918;BME280;46792;38.854;-9.384;2022-11-15T03:01:56;99392.41;;;16.13;100.00
60918;BME280;46792;38.854;-9.384;2022-11-15T03:07:37;99395.22;;;16.08;100.00
60918;BME280;46792;38.854;-9.384;2022-11-15T03:19:52;99376.66;;;16.10;100.00
60918;BME280;46792;38.854;-9.384;2022-11-15T03:22:21;99381.69;;;16.17;100.00
60918;BME280;46792;38.854;-9.384;2022-11-15T03:24:43;99376.25;;;16.17;100.00
60918;BME280;46792;38.854;-9.384;2022-11-15T03:27:06;99372.50;;;16.12;100.00
60918;BME280;46792;38.854;-9.384;2022-11-15T03:29:31;99367.38;;;16.11;100.00
60918;BME280;46792;38.854;-9.384;2022-11-15T03:31:57;99378.47;;;16.15;100.00
60918;BME280;46792;38.854;-9.384;2022-11-15T03:37:14;99362.63;;;16.17;100.00
60918;BME280;46792;38.854;-9.384;2022-11-15T03:39:36;99362.53;;;16.22;100.00
60918;BME280;46792;38.854;-9.384;2022-11-15T03:42:22;99364.25;;;16.18;100.00
60918;BME280;46792;38.854;-9.384;2022-11-15T03:49:50;99358.50;;;16.19;100.00
60918;BME280;46792;38.854;-9.384;2022-11-15T03:52:31;99355.28;;;16.17;100.00
60918;BME280;46792;38.854;-9.384;2022-11-15T03:54:56;99356.81;;;16.09;100.00
60918;BME280;46792;38.854;-9.384;2022-11-15T03:57:15;99356.81;;;16.09;100.00
60918;BME280;46792;38.854;-9.384;2022-11-15T03:59:34;99354.50;;;16.03;100.00
60918;BME280;46792;38.854;-9.384;2022-11-15T04:01:54;99350.44;;;16.00;100.00
60918;BME280;46792;38.854;-9.384;2022-11-15T04:04:13;99358.13;;;15.98;100.00
60918;BME280;46792;38.854;-9.384;2022-11-15T04:06:33;99345.44;;;15.93;100.00
60918;BME280;46792;38.854;-9.384;2022-11-15T04:08:52;99361.06;;;15.88;100.00
60918;BME280;46792;38.854;-9.384;2022-11-15T04:11:11;99356.44;;;15.88;100.00
60918;BME280;46792;38.854;-9.384;2022-11-15T04:13:31;99352.28;;;15.91;100.00
60918;BME280;46792;38.854;-9.384;2022-11-15T04:15:49;99354.50;;;15.89;100.00
60918;BME280;46792;38.854;-9.384;2022-11-15T04:18:08;99353.47;;;15.85;100.00
60918;BME280;46792;38.854;-9.384;2022-11-15T04:20:29;99344.22;;;15.86;100.00
60918;BME280;46792;38.854;-9.384;2022-11-15T04:23:12;99353.59;;;15.93;100.00
60918;BME280;46792;38.854;-9.384;2022-11-15T04:25:52;99342.59;;;15.99;100.00
60918;BME280;46792;38.854;-9.384;2022-11-15T04:28:12;99344.03;;;15.96;100.00
60918;BME280;46792;38.854;-9.384;2022-11-15T04:30:32;99337.94;;;15.99;100.00
60918;BME280;46792;38.854;-9.384;2022-11-15T04:32:51;99336.84;;;16.00;100.00
60918;BME280;46792;38.854;-9.384;2022-11-15T04:35:10;99336.34;;;15.98;100.00
60918;BME280;46792;38.854;-9.384;2022-11-15T04:43:04;99312.94;;;15.97;100.00
60918;BME280;46792;38.854;-9.384;2022-11-15T04:45:23;99312.94;;;15.97;100.00
60918;BME280;46792;38.854;-9.384;2022-11-15T04:47:46;99310.78;;;15.85;100.00
60918;BME280;46792;38.854;-9.384;2022-11-15T04:50:06;99319.91;;;15.89;100.00
60918;BME280;46792;38.854;-9.384;2022-11-15T04:52:25;99323.53;;;15.85;100.00
60918;BME280;46792;38.854;-9.384;2022-11-15T04:54:44;99328.72;;;15.86;100.00
60918;BME280;46792;38.854;-9.384;2022-11-15T04:57:03;99326.97;;;15.90;100.00
60918;BME280;46792;38.854;-9.384;2022-11-15T04:59:22;99333.25;;;15.91;100.00
60918;BME280;46792;38.854;-9.384;2022-11-15T05:02:00;99336.66;;;15.96;100.00
60918;BME280;46792;38.854;-9.384;2022-11-15T05:06:57;99339.06;;;15.98;100.00
60918;BME280;46792;38.854;-9.384;2022-11-15T05:09:18;99343.28;;;16.04;100.00
60918;BME280;46792;38.854;-9.384;2022-11-15T05:11:38;99334.13;;;16.00;100.00
60918;BME280;46792;38.854;-9.384;2022-11-15T05:13:56;99330.19;;;16.06;100.00
60918;BME280;46792;38.854;-9.384;2022-11-15T05:16:15;99335.31;;;16.08;100.00
60918;BME280;46792;38.854;-9.384;2022-11-15T05:21:35;99338.94;;;16.17;100.00
60918;BME280;46792;38.854;-9.384;2022-11-15T05:23:55;99332.75;;;16.25;100.00
60918;BME280;46792;38.854;-9.384;2022-11-15T05:26:17;99334.59;;;16.16;100.00
60918;BME280;46792;38.854;-9.384;2022-11-15T05:28:39;99348.22;;;16.16;100.00
60918;BME280;46792;38.854;-9.384;2022-11-15T05:31:13;99344.25;;;16.22;100.00
60918;BME280;46792;38.854;-9.384;2022-11-15T05:36:48;99339.38;;;16.10;100.00
60918;BME280;46792;38.854;-9.384;2022-11-15T05:39:10;99347.41;;;16.16;100.00
60918;BME280;46792;38.854;-9.384;2022-11-15T05:41:37;99340.97;;;16.11;100.00
60918;BME280;46792;38.854;-9.384;2022-11-15T05:43:59;99330.56;;;16.14;100.00
60918;BME280;46792;38.854;-9.384;2022-11-15T05:46:19;99328.66;;;16.14;100.00
60918;BME280;46792;38.854;-9.384;2022-11-15T05:48:41;99331.97;;;16.25;100.00
60918;BME280;46792;38.854;-9.384;2022-11-15T05:51:20;99339.22;;;16.16;100.00
60918;BME280;46792;38.854;-9.384;2022-11-15T05:54:02;99340.56;;;16.18;100.00
60918;BME280;46792;38.854;-9.384;2022-11-15T05:56:21;99333.50;;;16.17;100.00
60918;BME280;46792;38.854;-9.384;2022-11-15T05:58:41;99330.84;;;16.26;100.00
60918;BME280;46792;38.854;-9.384;2022-11-15T06:04:09;99330.84;;;16.26;100.00
60918;BME280;46792;38.854;-9.384;2022-11-15T06:06:29;99324.91;;;16.24;100.00
60918;BME280;46792;38.854;-9.384;2022-11-15T06:08:47;99340.75;;;16.22;100.00
60918;BME280;46792;38.854;-9.384;2022-11-15T06:11:06;99327.44;;;16.20;100.00
60918;BME280;46792;38.854;-9.384;2022-11-15T06:13:34;99338.13;;;16.17;100.00
60918;BME280;46792;38.854;-9.384;2022-11-15T06:15:55;99332.25;;;16.23;100.00
60918;BME280;46792;38.854;-9.384;2022-11-15T06:24:08;99337.28;;;16.30;100.00
60918;BME280;46792;38.854;-9.384;2022-11-15T06:26:27;99327.81;;;16.27;100.00
60918;BME280;46792;38.854;-9.384;2022-11-15T06:28:50;99332.53;;;16.36;100.00
60918;BME280;46792;38.854;-9.384;2022-11-15T06:37:02;99340.22;;;16.34;100.00
60918;BME280;46792;38.854;-9.384;2022-11-15T06:39:25;99337.66;;;16.37;100.00
60918;BME280;46792;38.854;-9.384;2022-11-15T06:41:45;99341.50;;;16.36;100.00
60918;BME280;46792;38.854;-9.384;2022-11-15T06:44:04;99335.09;;;16.55;100.00
60918;BME280;46792;38.854;-9.384;2022-11-15T06:52:00;99331.69;;;16.49;100.00
60918;BME280;46792;38.854;-9.384;2022-11-15T06:54:19;99336.50;;;16.52;100.00
60918;BME280;46792;38.854;-9.384;2022-11-15T06:56:39;99335.31;;;16.45;100.00
60918;BME280;46792;38.854;-9.384;2022-11-15T06:58:58;99332.91;;;16.43;100.00
60918;BME280;46792;38.854;-9.384;2022-11-15T07:01:20;99338.66;;;16.64;100.00
60918;BME280;46792;38.854;-9.384;2022-11-15T07:03:41;99342.66;;;16.58;100.00
60918;BME280;46792;38.854;-9.384;2022-11-15T07:06:01;99344.19;;;16.50;100.00
60918;BME280;46792;38.854;-9.384;2022-11-15T07:08:20;99343.56;;;16.53;100.00
60918;BME280;46792;38.854;-9.384;2022-11-15T07:13:18;99345.38;;;16.58;100.00
60918;BME280;46792;38.854;-9.384;2022-11-15T07:15:37;99347.78;;;16.60;100.00
60918;BME280;46792;38.854;-9.384;2022-11-15T07:18:00;99342.00;;;16.61;100.00
60918;BME280;46792;38.854;-9.384;2022-11-15T07:20:20;99343.25;;;16.55;100.00
60918;BME280;46792;38.854;-9.384;2022-11-15T07:22:40;99344.69;;;16.52;100.00
60918;BME280;46792;38.854;-9.384;2022-11-15T07:24:59;99347.53;;;16.47;100.00
60918;BME280;46792;38.854;-9.384;2022-11-15T07:27:18;99341.25;;;16.47;100.00
60918;BME280;46792;38.854;-9.384;2022-11-15T07:29:40;99339.72;;;16.54;100.00
60918;BME280;46792;38.854;-9.384;2022-11-15T07:31:59;99346.47;;;16.57;100.00
60918;BME280;46792;38.854;-9.384;2022-11-15T07:34:18;99344.06;;;16.55;100.00
60918;BME280;46792;38.854;-9.384;2022-11-15T07:36:37;99341.25;;;16.47;100.00
60918;BME280;46792;38.854;-9.384;2022-11-15T07:38:56;99340.66;;;16.50;100.00
60918;BME280;46792;38.854;-9.384;2022-11-15T07:41:16;99340.75;;;16.45;100.00
60918;BME280;46792;38.854;-9.384;2022-11-15T07:43:35;99342.69;;;16.44;100.00
60918;BME280;46792;38.854;-9.384;2022-11-15T07:45:55;99346.69;;;16.47;100.00
60918;BME280;46792;38.854;-9.384;2022-11-15T07:48:20;99337.81;;;16.55;100.00
60918;BME280;46792;38.854;-9.384;2022-11-15T07:50:44;99345.97;;;16.55;100.00
60918;BME280;46792;38.854;-9.384;2022-11-15T07:53:03;99346.47;;;16.57;100.00
60918;BME280;46792;38.854;-9.384;2022-11-15T07:55:24;99346.59;;;16.52;100.00
60918;BME280;46792;38.854;-9.384;2022-11-15T07:57:43;99343.69;;;16.48;100.00
60918;BME280;46792;38.854;-9.384;2022-11-15T08:00:04;99344.06;;;16.55;100.00
60918;BME280;46792;38.854;-9.384;2022-11-15T08:02:24;99344.06;;;16.55;100.00
60918;BME280;46792;38.854;-9.384;2022-11-15T08:04:43;99344.19;;;16.50;100.00
60918;BME280;46792;38.854;-9.384;2022-11-15T08:07:02;99350.44;;;16.51;100.00
60918;BME280;46792;38.854;-9.384;2022-11-15T08:09:21;99364.25;;;16.54;100.00
60918;BME280;46792;38.854;-9.384;2022-11-15T08:11:40;99364.13;;;16.60;100.00
60918;BME280;46792;38.854;-9.384;2022-11-15T08:13:59;99370.25;;;16.65;100.00
60918;BME280;46792;38.854;-9.384;2022-11-15T08:16:18;99369.81;;;16.72;100.00
60918;BME280;46792;38.854;-9.384;2022-11-15T08:18:37;99371.25;;;16.69;100.00
60918;BME280;46792;38.854;-9.384;2022-11-15T08:21:00;99367.25;;;16.67;100.00
60918;BME280;46792;38.854;-9.384;2022-11-15T08:23:19;99383.53;;;16.81;100.00
60918;BME280;46792;38.854;-9.384;2022-11-15T08:25:38;99371.00;;;16.80;100.00
60918;BME280;46792;38.854;-9.384;2022-11-15T08:28:00;99386.75;;;16.83;100.00
60918;BME280;46792;38.854;-9.384;2022-11-15T08:30:20;99377.38;;;16.75;100.00
60918;BME280;46792;38.854;-9.384;2022-11-15T08:32:39;99380.94;;;16.76;100.00
60918;BME280;46792;38.854;-9.384;2022-11-15T08:34:59;99377.72;;;16.73;100.00
60918;BME280;46792;38.854;-9.384;2022-11-15T08:37:19;99376.28;;;16.76;100.00
60918;BME280;46792;38.854;-9.384;2022-11-15T08:39:37;99372.00;;;16.84;100.00
60918;BME280;46792;38.854;-9.384;2022-11-15T08:41:56;99373.00;;;16.88;100.00
60918;BME280;46792;38.854;-9.384;2022-11-15T08:44:15;99368.16;;;16.85;100.00
60918;BME280;46792;38.854;-9.384;2022-11-15T08:46:34;99387.31;;;16.94;100.00
60918;BME280;46792;38.854;-9.384;2022-11-15T08:48:53;99378.72;;;17.00;100.00
60918;BME280;46792;38.854;-9.384;2022-11-15T08:51:13;99370.53;;;17.00;100.00
60918;BME280;46792;38.854;-9.384;2022-11-15T08:53:35;99372.16;;;17.01;100.00
60918;BME280;46792;38.854;-9.384;2022-11-15T08:55:54;99372.59;;;16.95;100.00
60918;BME280;46792;38.854;-9.384;2022-11-15T08:58:16;99379.44;;;16.92;100.00
60918;BME280;46792;38.854;-9.384;2022-11-15T09:00:36;99374.78;;;16.93;100.00
60918;BME280;46792;38.854;-9.384;2022-11-15T09:02:55;99369.34;;;16.93;100.00
60918;BME280;46792;38.854;-9.384;2022-11-15T09:05:16;99377.78;;;17.05;100.00
60918;BME280;46792;38.854;-9.384;2022-11-15T09:07:37;99383.41;;;17.09;100.00
60918;BME280;46792;38.854;-9.384;2022-11-15T09:09:56;99383.41;;;17.09;100.00
60918;BME280;46792;38.854;-9.384;2022-11-15T09:12:15;99374.56;;;17.03;100.00
60918;BME280;46792;38.854;-9.384;2022-11-15T09:14:34;99377.59;;;17.01;100.00
60918;BME280;46792;38.854;-9.384;2022-11-15T09:16:53;99373.50;;;17.13;100.00
60918;BME280;46792;38.854;-9.384;2022-11-15T09:19:12;99374.50;;;17.17;100.00
60918;BME280;46792;38.854;-9.384;2022-11-15T09:21:33;99369.66;;;17.14;100.00
60918;BME280;46792;38.854;-9.384;2022-11-15T09:23:52;99381.19;;;17.11;100.00
60918;BME280;46792;38.854;-9.384;2022-11-15T09:26:12;99371.88;;;17.12;100.00
60918;BME280;46792;38.854;-9.384;2022-11-15T09:28:32;99370.47;;;17.14;100.00
60918;BME280;46792;38.854;-9.384;2022-11-15T09:30:51;99379.66;;;17.27;100.00
60918;BME280;46792;38.854;-9.384;2022-11-15T09:33:11;99375.03;;;17.28;100.00
60918;BME280;46792;38.854;-9.384;2022-11-15T09:35:31;99376.44;;;17.25;100.00
60918;BME280;46792;38.854;-9.384;2022-11-15T09:37:50;99377.25;;;17.26;100.00
60918;BME280;46792;38.854;-9.384;2022-11-15T09:40:11;99373.25;;;17.23;100.00
60918;BME280;46792;38.854;-9.384;2022-11-15T09:43:04;99372.38;;;17.14;100.00
60918;BME280;46792;38.854;-9.384;2022-11-15T09:45:52;99377.03;;;17.13;100.00
60918;BME280;46792;38.854;-9.384;2022-11-15T09:48:10;99386.63;;;17.11;100.00
60918;BME280;46792;38.854;-9.384;2022-11-15T09:52:43;99380.88;;;17.12;100.00
60918;BME280;46792;38.854;-9.384;2022-11-15T09:54:48;99370.75;;;17.13;100.00
60918;BME280;46792;38.854;-9.384;2022-11-15T09:56:50;99372.19;;;17.10;100.00
60918;BME280;46792;38.854;-9.384;2022-11-15T10:00:52;99369.16;;;17.12;100.00
60918;BME280;46792;38.854;-9.384;2022-11-15T10:05:03;99371.75;;;17.17;100.00
60918;BME280;46792;38.854;-9.384;2022-11-15T10:07:44;99369.31;;;17.07;100.00
60918;BME280;46792;38.854;-9.384;2022-11-15T10:11:57;99369.91;;;17.03;100.00
60918;BME280;46792;38.854;-9.384;2022-11-15T10:14:05;99375.88;;;17.06;100.00
60918;BME280;46792;38.854;-9.384;2022-11-15T10:16:12;99364.28;;;17.00;100.00
60918;BME280;46792;38.854;-9.384;2022-11-15T10:18:29;99366.56;;;17.07;100.00
60918;BME280;46792;38.854;-9.384;2022-11-15T10:20:59;99367.25;;;17.12;100.00
60918;BME280;46792;38.854;-9.384;2022-11-15T10:23:01;99368.53;;;17.15;100.00
60918;BME280;46792;38.854;-9.384;2022-11-15T10:27:16;99368.91;;;17.22;100.00
60918;BME280;46792;38.854;-9.384;2022-11-15T10:29:22;99360.72;;;17.22;100.00
60918;BME280;46792;38.854;-9.384;2022-11-15T10:31:25;99354.44;;;17.22;100.00
60918;BME280;46792;38.854;-9.384;2022-11-15T10:33:32;99346.09;;;17.18;100.00
60918;BME280;46792;38.854;-9.384;2022-11-15T10:35:37;99341.25;;;17.15;100.00
60918;BME280;46792;38.854;-9.384;2022-11-15T10:37:37;99340.97;;;17.16;100.00
60918;BME280;46792;38.854;-9.384;2022-11-15T10:39:38;99344.97;;;17.19;100.00
60918;BME280;46792;38.854;-9.384;2022-11-15T10:41:41;99350.00;;;17.26;100.00
60918;BME280;46792;38.854;-9.384;2022-11-15T10:43:42;99345.97;;;17.23;100.00
60918;BME280;46792;38.854;-9.384;2022-11-15T10:45:44;99340.69;;;17.27;100.00
60918;BME280;46792;38.854;-9.384;2022-11-15T10:47:45;99338.09;;;17.22;100.00
60918;BME280;46792;38.854;-9.384;2022-11-15T10:50:00;99341.44;;;17.18;100.00
60918;BME280;46792;38.854;-9.384;2022-11-15T10:52:12;99340.03;;;17.21;100.00
60918;BME280;46792;38.854;-9.384;2022-11-15T10:54:23;99343.88;;;17.20;100.00
60918;BME280;46792;38.854;-9.384;2022-11-15T10:56:26;99356.19;;;17.17;100.00
60918;BME280;46792;38.854;-9.384;2022-11-15T11:00:33;99345.69;;;17.33;100.00
60918;BME280;46792;38.854;-9.384;2022-11-15T11:02:36;99347.13;;;17.31;100.00
60918;BME280;46792;38.854;-9.384;2022-11-15T11:04:55;99328.69;;;17.37;100.00
60918;BME280;46792;38.854;-9.384;2022-11-15T11:06:57;99326.59;;;17.33;100.00
60918;BME280;46792;38.854;-9.384;2022-11-15T11:09:04;99336.03;;;17.27;100.00
60918;BME280;46792;38.854;-9.384;2022-11-15T11:11:06;99333.78;;;17.29;100.00
60918;BME280;46792;38.854;-9.384;2022-11-15T11:13:20;99325.75;;;17.24;100.00
60918;BME280;46792;38.854;-9.384;2022-11-15T11:15:24;99330.88;;;17.26;100.00
60918;BME280;46792;38.854;-9.384;2022-11-15T11:17:56;99338.63;;;17.32;100.00
60918;BME280;46792;38.854;-9.384;2022-11-15T11:20:23;99336.34;;;17.26;100.00
60918;BME280;46792;38.854;-9.384;2022-11-15T11:22:57;99334.59;;;17.30;100.00
60918;BME280;46792;38.854;-9.384;2022-11-15T11:25:26;99335.84;;;17.24;100.00
60918;BME280;46792;38.854;-9.384;2022-11-15T11:30:39;99311.78;;;17.26;100.00
60918;BME280;46792;38.854;-9.384;2022-11-15T11:40:22;99321.09;;;17.25;100.00
60918;BME280;46792;38.854;-9.384;2022-11-15T11:47:32;99313.94;;;17.38;100.00
60918;BME280;46792;38.854;-9.384;2022-11-15T11:49:51;99303.50;;;17.40;100.00
60918;BME280;46792;38.854;-9.384;2022-11-15T11:52:08;99288.59;;;17.46;100.00
60918;BME280;46792;38.854;-9.384;2022-11-15T11:56:21;99279.63;;;17.54;100.00
60918;BME280;46792;38.854;-9.384;2022-11-15T11:58:42;99277.06;;;17.58;100.00
60918;BME280;46792;38.854;-9.384;2022-11-15T12:00:50;99287.53;;;17.64;100.00
60918;BME280;46792;38.854;-9.384;2022-11-15T12:05:13;99272.72;;;17.57;100.00
60918;BME280;46792;38.854;-9.384;2022-11-15T12:07:30;99263.75;;;17.65;100.00
60918;BME280;46792;38.854;-9.384;2022-11-15T12:09:43;99265.19;;;17.62;100.00
60918;BME280;46792;38.854;-9.384;2022-11-15T12:14:01;99261.03;;;17.56;100.00
60918;BME280;46792;38.854;-9.384;2022-11-15T12:16:20;99259.41;;;17.55;100.00
60918;BME280;46792;38.854;-9.384;2022-11-15T12:18:22;99251.38;;;17.59;100.00
60918;BME280;46792;38.854;-9.384;2022-11-15T12:20:25;99263.25;;;17.54;100.00
60918;BME280;46792;38.854;-9.384;2022-11-15T12:23:11;99242.22;;;17.55;100.00
60918;BME280;46792;38.854;-9.384;2022-11-15T12:25:18;99240.78;;;17.48;100.00
60918;BME280;46792;38.854;-9.384;2022-11-15T12:27:42;99237.38;;;17.43;100.00
60918;BME280;46792;38.854;-9.384;2022-11-15T12:29:54;99230.50;;;17.45;100.00
60918;BME280;46792;38.854;-9.384;2022-11-15T12:31:56;99226.63;;;17.38;100.00
60918;BME280;46792;38.854;-9.384;2022-11-15T12:34:12;99223.72;;;17.43;100.00
60918;BME280;46792;38.854;-9.384;2022-11-15T12:40:35;99203.69;;;17.47;100.00
60918;BME280;46792;38.854;-9.384;2022-11-15T12:42:40;99203.22;;;17.54;100.00
60918;BME280;46792;38.854;-9.384;2022-11-15T12:58:58;99197.75;;;17.54;100.00
60918;BME280;46792;38.854;-9.384;2022-11-15T13:00:59;99204.00;;;17.55;100.00
60918;BME280;46792;38.854;-9.384;2022-11-15T13:03:26;99188.91;;;17.57;100.00
60918;BME280;46792;38.854;-9.384;2022-11-15T13:09:51;99172.72;;;17.52;100.00
60918;BME280;46792;38.854;-9.384;2022-11-15T13:11:52;99178.31;;;17.47;100.00
60918;BME280;46792;38.854;-9.384;2022-11-15T13:13:52;99160.50;;;17.49;100.00
60918;BME280;46792;38.854;-9.384;2022-11-15T13:15:59;99166.44;;;17.52;100.00
60918;BME280;46792;38.854;-9.384;2022-11-15T13:18:37;99171.41;;;17.58;100.00
60918;BME280;46792;38.854;-9.384;2022-11-15T13:20:44;99161.31;;;17.59;100.00
60918;BME280;46792;38.854;-9.384;2022-11-15T13:22:50;99156.16;;;17.57;100.00
60918;BME280;46792;38.854;-9.384;2022-11-15T13:24:52;99157.13;;;17.61;100.00
60918;BME280;46792;38.854;-9.384;2022-11-15T13:26:52;99148.66;;;17.63;100.00
60918;BME280;46792;38.854;-9.384;2022-11-15T13:28:53;99156.00;;;17.62;100.00
60918;BME280;46792;38.854;-9.384;2022-11-15T13:31:13;99152.50;;;17.62;100.00
60918;BME280;46792;38.854;-9.384;2022-11-15T13:33:24;99139.00;;;17.66;100.00
60918;BME280;46792;38.854;-9.384;2022-11-15T13:35:39;99141.88;;;17.60;100.00
60918;BME280;46792;38.854;-9.384;2022-11-15T13:37:40;99137.41;;;17.64;100.00
60918;BME280;46792;38.854;-9.384;2022-11-15T13:39:41;99128.88;;;17.57;100.00
60918;BME280;46792;38.854;-9.384;2022-11-15T13:41:48;99134.66;;;17.56;100.00
60918;BME280;46792;38.854;-9.384;2022-11-15T13:43:51;99138.66;;;17.58;100.00
60918;BME280;46792;38.854;-9.384;2022-11-15T13:46:11;99133.88;;;17.64;100.00
60918;BME280;46792;38.854;-9.384;2022-11-15T13:48:12;99125.84;;;17.59;100.00
60918;BME280;46792;38.854;-9.384;2022-11-15T13:50:13;99132.41;;;17.67;100.00
60918;BME280;46792;38.854;-9.384;2022-11-15T13:52:15;99125.69;;;17.64;100.00
60918;BME280;46792;38.854;-9.384;2022-11-15T13:54:30;99104.63;;;17.64;100.00
60918;BME280;46792;38.854;-9.384;2022-11-15T13:56:34;99109.31;;;17.55;100.00
60918;BME280;46792;38.854;-9.384;2022-11-15T13:58:38;99103.66;;;17.60;100.00
60918;BME280;46792;38.854;-9.384;2022-11-15T14:00:41;99113.94;;;17.63;100.00
60918;BME280;46792;38.854;-9.384;2022-11-15T14:02:43;99100.63;;;17.53;100.00
60918;BME280;46792;38.854;-9.384;2022-11-15T14:04:59;99095.81;;;17.50;100.00
60918;BME280;46792;38.854;-9.384;2022-11-15T14:07:05;99098.84;;;17.57;100.00
60918;BME280;46792;38.854;-9.384;2022-11-15T14:11:19;99088.91;;;17.53;100.00